createdAt,value
2018-12-21T00:00:19.166Z,99357.80
2018-12-21T00:02:47.266Z,99365.59
2018-12-21T00:05:15.412Z,99361.30
2018-12-21T00:07:43.484Z,99352.84
2018-12-21T00:10:12.202Z,99351.70
2018-12-21T00:12:40.264Z,99324.18
2018-12-21T00:15:08.444Z,99322.48
2018-12-21T00:17:36.527Z,99329.86
2018-12-21T00:20:06.043Z,99330.25
2018-12-21T00:22:34.518Z,99311.78
2018-12-21T00:25:02.625Z,99322.39
2018-12-21T00:27:30.715Z,99329.52
2018-12-21T00:29:58.859Z,99318.95
2018-12-21T00:32:32.426Z,99329.47
2018-12-21T00:35:05.906Z,99323.91
2018-12-21T00:37:39.391Z,99321.33
2018-12-21T00:40:13.296Z,99309.39
2018-12-21T00:42:47.095Z,99305.65
2018-12-21T00:45:17.146Z,99297.00
2018-12-21T00:47:45.232Z,99295.98
2018-12-21T00:50:13.348Z,99296.52
2018-12-21T00:52:41.417Z,99282.23
2018-12-21T00:55:09.738Z,99282.41
2018-12-21T00:57:37.794Z,99270.20
2018-12-21T01:00:12.407Z,99279.77
2018-12-21T01:02:40.511Z,99279.98
2018-12-21T01:05:08.690Z,99276.29
2018-12-21T01:07:36.746Z,99275.35
2018-12-21T01:10:05.420Z,99250.80
2018-12-21T01:12:34.763Z,99247.45
2018-12-21T01:15:02.930Z,99254.53
2018-12-21T01:17:31.018Z,99243.92
2018-12-21T01:19:59.152Z,99255.81
2018-12-21T01:22:27.252Z,99247.31
2018-12-21T01:24:55.323Z,99221.66
2018-12-21T01:27:23.387Z,99246.13
2018-12-21T01:29:51.493Z,99232.02
2018-12-21T01:32:19.614Z,99218.02
2018-12-21T01:34:47.682Z,99211.59
2018-12-21T01:37:15.766Z,99225.75
2018-12-21T01:39:43.903Z,99219.99
2018-12-21T01:42:11.957Z,99212.24
2018-12-21T01:44:40.052Z,99209.49
2018-12-21T01:47:08.106Z,99209.33
2018-12-21T01:49:36.170Z,99202.48
2018-12-21T01:52:04.267Z,99203.43
2018-12-21T01:54:32.338Z,99199.89
2018-12-21T01:57:00.473Z,99189.59
2018-12-21T01:59:28.538Z,99183.17
2018-12-21T02:01:56.826Z,99182.83
2018-12-21T02:04:24.936Z,99181.92
2018-12-21T02:06:53.062Z,99180.66
2018-12-21T02:09:21.178Z,99183.77
2018-12-21T02:11:49.320Z,99163.86
2018-12-21T02:14:17.380Z,99170.98
2018-12-21T02:16:45.478Z,99141.79
2018-12-21T02:19:13.550Z,99162.63
2018-12-21T02:21:41.691Z,99152.65
2018-12-21T02:24:09.746Z,99137.89
2018-12-21T02:26:37.838Z,99123.83
2018-12-21T02:29:05.938Z,99116.96
2018-12-21T02:31:34.074Z,99115.03
2018-12-21T02:34:02.274Z,99105.41
2018-12-21T02:36:30.330Z,99095.80
2018-12-21T02:38:58.386Z,99094.05
2018-12-21T02:41:26.454Z,99092.00
2018-12-21T02:43:54.518Z,99093.30
2018-12-21T02:46:22.705Z,99073.91
2018-12-21T02:48:50.846Z,99069.94
2018-12-21T02:51:18.911Z,99068.36
2018-12-21T02:53:46.966Z,99059.34
2018-12-21T02:56:15.062Z,99061.44
2018-12-21T02:58:43.154Z,99050.81
2018-12-21T03:01:12.184Z,99058.30
2018-12-21T03:03:40.339Z,99052.22
2018-12-21T03:06:08.398Z,99039.22
2018-12-21T03:08:36.455Z,99035.26
2018-12-21T03:11:04.528Z,99034.15
2018-12-21T03:13:33.079Z,99021.37
2018-12-21T03:16:01.291Z,99010.15
2018-12-21T03:18:29.427Z,99005.71
2018-12-21T03:20:57.503Z,98992.88
2018-12-21T03:23:25.654Z,98981.37
2018-12-21T03:25:53.851Z,98975.98
2018-12-21T03:28:21.907Z,98981.94
2018-12-21T03:30:49.976Z,98960.00
2018-12-21T03:33:18.165Z,98932.09
2018-12-21T03:35:46.343Z,98930.76
2018-12-21T03:38:14.487Z,98941.00
2018-12-21T03:40:42.557Z,98936.27
2018-12-21T03:43:10.703Z,98917.14
2018-12-21T03:45:38.927Z,98924.31
2018-12-21T03:48:07.084Z,98917.69
2018-12-21T03:50:35.197Z,98910.77
2018-12-21T03:53:03.254Z,98912.19
2018-12-21T03:55:31.326Z,98905.12
2018-12-21T03:57:59.387Z,98885.01
2018-12-21T04:00:27.486Z,98902.45
2018-12-21T04:02:55.630Z,98892.73
2018-12-21T04:05:23.826Z,98882.00
2018-12-21T04:07:51.969Z,98830.72
2018-12-21T04:10:20.062Z,98824.48
2018-12-21T04:12:48.125Z,98824.23
2018-12-21T04:15:16.246Z,98864.37
2018-12-21T04:17:44.379Z,98866.50
2018-12-21T04:20:12.647Z,98865.14
2018-12-21T04:22:40.785Z,98863.44
2018-12-21T04:25:08.987Z,98843.78
2018-12-21T04:27:37.056Z,98853.94
2018-12-21T04:30:08.361Z,98855.27
2018-12-21T04:32:36.410Z,98848.96
2018-12-21T04:35:04.890Z,98839.33
2018-12-21T04:37:32.943Z,98842.13
2018-12-21T04:40:01.104Z,98818.39
2018-12-21T04:42:29.172Z,98811.89
2018-12-21T04:44:57.349Z,98802.81
2018-12-21T04:47:25.499Z,98782.75
2018-12-21T04:49:53.642Z,98787.45
2018-12-21T04:52:21.707Z,98774.72
2018-12-21T04:54:49.775Z,98777.95
2018-12-21T04:57:17.847Z,98765.16
2018-12-21T04:59:45.926Z,98758.73
2018-12-21T05:02:13.997Z,98747.61
2018-12-21T05:04:42.069Z,98743.23
2018-12-21T05:07:12.560Z,98712.55
2018-12-21T05:09:40.534Z,98731.97
2018-12-21T05:12:08.960Z,98725.88
2018-12-21T05:14:37.212Z,98715.78
2018-12-21T05:17:05.326Z,98706.11
2018-12-21T05:19:33.383Z,98693.61
2018-12-21T05:22:01.444Z,98689.23
2018-12-21T05:24:29.529Z,98681.30
2018-12-21T05:26:57.623Z,98654.88
2018-12-21T05:29:25.687Z,98664.92
2018-12-21T05:31:53.772Z,98653.20
2018-12-21T05:34:21.810Z,98652.81
2018-12-21T05:36:49.878Z,98652.36
2018-12-21T05:39:17.939Z,98652.58
2018-12-21T05:41:46.003Z,98657.58
2018-12-21T05:44:14.057Z,98639.52
2018-12-21T05:46:42.204Z,98649.33
2018-12-21T05:49:10.259Z,98641.14
2018-12-21T05:51:38.373Z,98636.91
2018-12-21T05:54:06.437Z,98634.63
2018-12-21T05:56:34.570Z,98628.45
2018-12-21T05:59:02.683Z,98624.34
2018-12-21T06:01:30.744Z,98627.73
2018-12-21T06:03:58.813Z,98612.18
2018-12-21T06:06:26.952Z,98609.73
2018-12-21T06:08:55.080Z,98602.63
2018-12-21T06:11:23.175Z,98592.71
2018-12-21T06:13:51.272Z,98596.82
2018-12-21T06:16:19.381Z,98598.27
2018-12-21T06:18:48.005Z,98584.67
2018-12-21T06:21:16.109Z,98591.67
2018-12-21T06:23:44.182Z,98589.22
2018-12-21T06:26:12.235Z,98575.24
2018-12-21T06:28:40.340Z,98578.34
2018-12-21T06:31:08.526Z,98569.74
2018-12-21T06:33:36.620Z,98556.84
2018-12-21T06:36:04.723Z,98561.27
2018-12-21T06:38:32.875Z,98562.96
2018-12-21T06:41:00.967Z,98546.23
2018-12-21T06:43:29.065Z,98542.36
2018-12-21T06:45:58.298Z,98518.58
2018-12-21T06:48:26.403Z,98530.48
2018-12-21T06:50:54.463Z,98504.53
2018-12-21T06:53:22.613Z,98511.68
2018-12-21T06:55:50.763Z,98506.29
2018-12-21T06:58:18.810Z,98511.91
2018-12-21T07:00:46.903Z,98507.66
2018-12-21T07:03:17.254Z,98494.45
2018-12-21T07:05:45.063Z,98499.21
2018-12-21T07:08:13.135Z,98501.84
2018-12-21T07:10:41.206Z,98494.02
2018-12-21T07:13:09.276Z,98486.19
2018-12-21T07:15:37.330Z,98462.81
2018-12-21T07:18:05.407Z,98449.42
2018-12-21T07:20:33.507Z,98461.71
2018-12-21T07:23:01.594Z,98444.07
2018-12-21T07:25:29.659Z,98442.35
2018-12-21T07:27:57.767Z,98425.09
2018-12-21T07:30:25.838Z,98431.41
2018-12-21T07:32:54.314Z,98422.49
2018-12-21T07:35:22.523Z,98385.55
2018-12-21T07:37:50.704Z,98411.36
2018-12-21T07:40:18.846Z,98417.86
2018-12-21T07:42:46.898Z,98408.63
2018-12-21T07:45:14.982Z,98400.70
2018-12-21T07:47:43.055Z,98382.61
2018-12-21T07:50:11.164Z,98370.44
2018-12-21T07:52:39.784Z,98340.59
2018-12-21T07:55:08.063Z,98330.59
2018-12-21T07:57:36.124Z,98331.05
2018-12-21T08:00:07.816Z,98317.83
2018-12-21T08:02:35.942Z,98313.49
2018-12-21T08:05:05.307Z,98315.23
2018-12-21T08:07:33.364Z,98309.00
2018-12-21T08:10:01.495Z,98307.47
2018-12-21T08:12:29.639Z,98272.31
2018-12-21T08:14:57.698Z,98290.03
2018-12-21T08:17:25.783Z,98268.09
2018-12-21T08:19:53.858Z,98274.39
2018-12-21T08:22:22.035Z,98246.28
2018-12-21T08:24:50.098Z,98262.73
2018-12-21T08:27:18.196Z,98248.80
2018-12-21T08:29:46.239Z,98250.52
2018-12-21T08:32:14.398Z,98252.14
2018-12-21T08:34:42.458Z,98248.06
2018-12-21T08:37:10.530Z,98237.12
2018-12-21T08:39:39.474Z,98215.88
2018-12-21T08:42:07.578Z,98217.32
2018-12-21T08:44:35.645Z,98235.57
2018-12-21T08:47:03.766Z,98207.06
2018-12-21T08:49:32.426Z,98211.02
2018-12-21T08:52:00.589Z,98201.59
2018-12-21T08:54:28.728Z,98217.05
2018-12-21T08:56:56.832Z,98205.70
2018-12-21T08:59:24.966Z,98197.41
2018-12-21T09:01:53.039Z,98211.22
2018-12-21T09:04:21.138Z,98197.27
2018-12-21T09:06:49.246Z,98172.53
2018-12-21T09:09:17.301Z,98201.19
2018-12-21T09:11:45.499Z,98209.25
2018-12-21T09:14:13.574Z,98217.70
2018-12-21T09:16:42.239Z,98181.66
2018-12-21T09:19:10.306Z,98177.27
2018-12-21T09:21:38.378Z,98161.67
2018-12-21T09:24:06.429Z,98158.77
2018-12-21T09:26:34.491Z,98164.02
2018-12-21T09:29:02.627Z,98174.63
2018-12-21T09:31:30.698Z,98178.61
2018-12-21T09:33:59.781Z,98205.70
2018-12-21T09:36:27.999Z,98202.66
2018-12-21T09:38:56.066Z,98175.83
2018-12-21T09:41:24.170Z,98215.69
2018-12-21T09:43:52.311Z,98194.89
2018-12-21T09:46:20.382Z,98224.66
2018-12-21T09:48:48.479Z,98195.66
2018-12-21T09:51:16.542Z,98208.16
2018-12-21T09:53:44.916Z,98205.62
2018-12-21T09:56:12.992Z,98202.50
2018-12-21T09:58:41.061Z,98216.97
2018-12-21T10:01:09.131Z,98211.98
2018-12-21T10:03:37.261Z,98207.80
2018-12-21T10:06:05.331Z,98222.77
2018-12-21T10:08:33.499Z,98190.23
2018-12-21T10:11:01.582Z,98212.38
2018-12-21T10:13:29.744Z,98228.55
2018-12-21T10:15:58.288Z,98204.84
2018-12-21T10:18:26.342Z,98198.09
2018-12-21T10:20:54.503Z,98201.52
2018-12-21T10:23:22.570Z,98200.50
2018-12-21T10:25:50.623Z,98191.94
2018-12-21T10:28:18.734Z,98193.21
2018-12-21T10:30:46.970Z,98201.48
2018-12-21T10:33:15.033Z,98206.58
2018-12-21T10:35:43.092Z,98193.38
2018-12-21T10:38:11.155Z,98201.75
2018-12-21T10:40:39.219Z,98194.11
2018-12-21T10:43:07.322Z,98187.05
2018-12-21T10:45:41.606Z,98208.94
2018-12-21T10:48:05.449Z,98176.09
2018-12-21T10:50:33.534Z,98182.27
2018-12-21T10:53:01.600Z,98204.62
2018-12-21T10:55:30.196Z,98193.15
2018-12-21T10:57:58.276Z,98193.01
2018-12-21T11:00:26.463Z,98203.94
2018-12-21T11:02:54.672Z,98190.77
2018-12-21T11:05:23.658Z,98186.24
2018-12-21T11:07:51.812Z,98202.16
2018-12-21T11:10:19.901Z,98196.84
2018-12-21T11:12:48.726Z,98205.05
2018-12-21T11:15:16.814Z,98204.58
2018-12-21T11:17:44.891Z,98197.77
2018-12-21T11:20:13.085Z,98198.84
2018-12-21T11:22:41.230Z,98206.77
2018-12-21T11:25:11.109Z,98182.80
2018-12-21T11:27:39.181Z,98204.63
2018-12-21T11:30:09.069Z,98183.59
2018-12-21T11:32:37.144Z,98213.17
2018-12-21T11:35:06.296Z,98213.17
2018-12-21T11:37:34.371Z,98198.59
2018-12-21T11:40:04.392Z,98194.45
2018-12-21T11:42:32.457Z,98185.31
2018-12-21T11:45:00.514Z,98210.19
2018-12-21T11:47:28.808Z,98207.27
2018-12-21T11:49:57.045Z,98209.57
2018-12-21T11:52:29.305Z,98183.55
2018-12-21T11:54:59.137Z,98204.92
2018-12-21T11:57:27.699Z,98198.13
2018-12-21T11:59:56.704Z,98186.57
2018-12-21T12:02:25.441Z,98190.34
2018-12-21T12:04:53.773Z,98192.49
2018-12-21T12:07:21.958Z,98172.86
2018-12-21T12:09:51.512Z,98162.61
2018-12-21T12:12:22.633Z,98180.64
2018-12-21T12:14:50.771Z,98188.13
2018-12-21T12:17:22.498Z,98193.58
2018-12-21T12:19:58.787Z,98177.17
2018-12-21T12:22:26.942Z,98204.06
2018-12-21T12:24:55.544Z,98182.33
2018-12-21T12:27:23.795Z,98141.05
2018-12-21T12:29:52.553Z,98139.31
2018-12-21T12:32:21.854Z,98200.36
2018-12-21T12:34:49.999Z,98200.52
2018-12-21T12:37:18.518Z,98210.50
2018-12-21T12:39:59.272Z,98214.48
2018-12-21T12:42:27.448Z,98209.62
2018-12-21T12:44:56.433Z,98240.02
2018-12-21T12:47:24.832Z,98227.09
2018-12-21T12:49:53.078Z,98235.13
2018-12-21T12:52:21.598Z,98223.86
2018-12-21T12:54:49.940Z,98236.89
2018-12-21T12:57:18.064Z,98215.01
2018-12-21T12:59:46.404Z,98228.14
2018-12-21T13:02:14.592Z,98240.59
2018-12-21T13:04:42.969Z,98244.59
2018-12-21T13:07:11.120Z,98227.83
2018-12-21T13:09:39.276Z,98238.83
2018-12-21T13:12:07.421Z,98207.84
2018-12-21T13:14:35.915Z,98236.89
2018-12-21T13:17:04.070Z,98226.48
2018-12-21T13:19:32.288Z,98212.30
2018-12-21T13:22:02.467Z,98214.92
2018-12-21T13:24:30.978Z,98215.33
2018-12-21T13:26:59.095Z,98214.74
2018-12-21T13:29:27.273Z,98244.06
2018-12-21T13:31:56.428Z,98239.84
2018-12-21T13:34:25.009Z,98236.55
2018-12-21T13:36:53.297Z,98230.73
2018-12-21T13:39:27.123Z,98221.84
2018-12-21T13:41:55.213Z,98239.69
2018-12-21T13:44:25.319Z,98214.14
2018-12-21T13:46:55.474Z,98231.70
2018-12-21T13:49:23.945Z,98244.05
2018-12-21T13:51:56.375Z,98261.97
2018-12-21T13:54:25.746Z,98268.30
2018-12-21T13:56:56.755Z,98239.38
2018-12-21T13:59:26.194Z,98268.53
2018-12-21T14:01:55.669Z,98251.28
2018-12-21T14:04:32.001Z,98264.81
2018-12-21T14:07:00.175Z,98254.80
2018-12-21T14:09:28.460Z,98271.36
2018-12-21T14:11:58.203Z,98252.44
2018-12-21T14:14:27.140Z,98264.34
2018-12-21T14:16:55.416Z,98253.02
2018-12-21T14:19:23.835Z,98252.69
2018-12-21T14:21:52.151Z,98267.67
2018-12-21T14:24:20.325Z,98258.91
2018-12-21T14:26:48.502Z,98284.92
2018-12-21T14:29:16.765Z,98293.73
2018-12-21T14:32:10.861Z,98286.92
2018-12-21T14:34:48.869Z,98287.42
2018-12-21T14:37:17.077Z,98292.38
2018-12-21T14:39:45.404Z,98306.45
2018-12-21T14:42:13.574Z,98316.94
2018-12-21T14:44:42.730Z,98311.88
2018-12-21T14:47:10.993Z,98336.20
2018-12-21T14:49:40.119Z,98334.38
2018-12-21T14:52:08.538Z,98356.95
2018-12-21T14:54:37.296Z,98364.93
2018-12-21T14:57:07.807Z,98377.20
2018-12-21T14:59:36.169Z,98376.63
2018-12-21T15:02:05.479Z,98388.01
2018-12-21T15:04:33.772Z,98374.59
2018-12-21T15:07:01.912Z,98394.75
2018-12-21T15:09:32.070Z,98394.58
2018-12-21T15:12:00.350Z,98415.70
2018-12-21T15:14:29.427Z,98412.05
2018-12-21T15:16:58.583Z,98433.66
2018-12-21T15:19:27.374Z,98432.84
2018-12-21T15:21:57.361Z,98432.52
2018-12-21T15:24:25.731Z,98437.06
2018-12-21T15:26:53.989Z,98432.32
2018-12-21T15:29:28.728Z,98451.59
2018-12-21T15:31:57.331Z,98445.92
2018-12-21T15:34:26.551Z,98466.02
2018-12-21T15:36:56.312Z,98450.92
2018-12-21T15:45:40.488Z,98504.95
2018-12-21T15:51:37.006Z,98509.87
2018-12-21T15:54:05.063Z,98511.84
2018-12-21T15:56:34.168Z,98518.34
2018-12-21T15:59:02.317Z,98525.76
2018-12-21T16:01:36.824Z,98540.55
2018-12-21T16:04:00.501Z,98549.81
2018-12-21T16:06:28.603Z,98552.42
2018-12-21T16:08:56.663Z,98553.37
2018-12-21T16:11:24.808Z,98549.02
2018-12-21T16:13:52.883Z,98554.97
2018-12-21T16:16:21.007Z,98552.85
2018-12-21T16:18:49.816Z,98580.76
2018-12-21T16:21:17.981Z,98587.69
2018-12-21T16:23:46.059Z,98586.42
2018-12-21T16:26:14.251Z,98589.27
2018-12-21T16:28:42.317Z,98552.33
2018-12-21T16:31:10.494Z,98611.99
2018-12-21T16:33:38.565Z,98599.56
2018-12-21T16:36:06.639Z,98606.52
2018-12-21T16:38:34.809Z,98595.51
2018-12-21T16:41:02.923Z,98599.92
2018-12-21T16:43:31.005Z,98643.98
2018-12-21T16:45:59.075Z,98631.86
2018-12-21T16:48:27.148Z,98630.08
2018-12-21T16:50:55.253Z,98646.45
2018-12-21T16:53:23.374Z,98641.83
2018-12-21T16:55:51.418Z,98659.51
2018-12-21T16:58:19.490Z,98659.83
2018-12-21T17:00:47.559Z,98661.61
2018-12-21T17:03:15.968Z,98664.23
2018-12-21T17:05:44.103Z,98670.19
2018-12-21T17:08:12.306Z,98663.36
2018-12-21T17:10:42.407Z,98656.23
2018-12-21T17:13:11.639Z,98660.19
2018-12-21T17:15:39.739Z,98678.51
2018-12-21T17:18:07.884Z,98688.14
2018-12-21T17:20:35.953Z,98696.91
2018-12-21T17:23:04.193Z,98701.39
2018-12-21T17:25:32.556Z,98708.52
2018-12-21T17:28:00.687Z,98709.30
2018-12-21T17:30:28.770Z,98716.39
2018-12-21T17:32:56.916Z,98720.13
2018-12-21T17:35:24.990Z,98714.88
2018-12-21T17:37:53.058Z,98739.82
2018-12-21T17:40:21.123Z,98726.84
2018-12-21T17:42:49.230Z,98731.12
2018-12-21T17:45:17.998Z,98742.74
2018-12-21T17:47:46.311Z,98738.30
2018-12-21T17:50:14.395Z,98740.98
2018-12-21T17:52:42.498Z,98716.28
2018-12-21T17:55:10.604Z,98733.34
2018-12-21T17:57:38.871Z,98739.31
2018-12-21T18:00:14.757Z,98747.55
2018-12-21T18:02:44.651Z,98769.61
2018-12-21T18:05:13.158Z,98751.53
2018-12-21T18:07:42.176Z,98749.22
2018-12-21T18:10:12.016Z,98782.31
2018-12-21T18:12:40.163Z,98765.59
2018-12-21T18:15:09.459Z,98759.38
2018-12-21T18:17:37.677Z,98767.91
2018-12-21T18:20:10.529Z,98765.55
2018-12-21T18:22:38.822Z,98787.91
2018-12-21T18:25:12.394Z,98770.34
2018-12-21T18:27:40.986Z,98789.24
2018-12-21T18:30:17.962Z,98796.62
2018-12-21T18:32:46.102Z,98797.47
2018-12-21T18:35:14.295Z,98806.27
2018-12-21T18:37:46.981Z,98803.95
2018-12-21T18:40:15.134Z,98802.94
2018-12-21T18:42:43.280Z,98834.76
2018-12-21T18:45:11.674Z,98831.28
2018-12-21T18:47:40.721Z,98826.61
2018-12-21T18:50:11.469Z,98831.63
2018-12-21T18:52:40.737Z,98848.03
2018-12-21T18:55:14.238Z,98834.13
2018-12-21T18:57:42.511Z,98838.38
2018-12-21T19:00:13.909Z,98842.33
2018-12-21T19:02:45.825Z,98841.77
2018-12-21T19:05:14.509Z,98826.73
2018-12-21T19:07:43.818Z,98845.92
2018-12-21T19:10:11.949Z,98851.50
2018-12-21T19:12:40.094Z,98849.83
2018-12-21T19:15:10.158Z,98840.59
2018-12-21T19:17:38.482Z,98841.70
2018-12-21T19:20:11.176Z,98860.52
2018-12-21T19:22:43.618Z,98868.38
2018-12-21T19:25:13.272Z,98865.44
2018-12-21T19:27:43.074Z,98869.47
2018-12-21T19:30:12.570Z,98871.69
2018-12-21T19:32:40.878Z,98891.80
2018-12-21T19:35:11.789Z,98884.78
2018-12-21T19:37:42.110Z,98899.92
2018-12-21T19:40:23.783Z,98881.84
2018-12-21T19:42:52.545Z,98893.91
2018-12-21T19:45:21.570Z,98891.44
2018-12-21T19:47:53.146Z,98900.71
2018-12-21T19:50:22.427Z,98899.20
2018-12-21T19:52:51.143Z,98892.05
2018-12-21T20:01:14.003Z,98920.05
2018-12-21T20:03:43.278Z,98930.03
2018-12-21T20:06:11.368Z,98924.88
2018-12-21T20:08:39.445Z,98929.70
2018-12-21T20:11:08.006Z,98937.84
2018-12-21T20:13:36.075Z,98943.72
2018-12-21T20:16:04.227Z,98944.61
2018-12-21T20:18:32.390Z,98944.42
2018-12-21T20:21:00.488Z,98936.49
2018-12-21T20:23:28.606Z,98938.24
2018-12-21T20:25:56.939Z,98948.05
2018-12-21T20:28:25.157Z,98947.95
2018-12-21T20:30:53.344Z,98935.20
2018-12-21T20:33:21.434Z,98947.54
2018-12-21T20:35:49.543Z,98958.70
2018-12-21T20:38:21.478Z,98972.30
2018-12-21T20:40:47.713Z,98943.07
2018-12-21T20:43:15.774Z,98960.12
2018-12-21T20:45:43.850Z,98940.09
2018-12-21T20:48:11.924Z,98956.27
2018-12-21T20:50:41.129Z,98953.92
2018-12-21T20:53:09.203Z,98957.17
2018-12-21T20:55:37.281Z,98942.27
2018-12-21T20:58:06.289Z,98956.02
2018-12-21T21:00:34.356Z,98957.73
2018-12-21T21:03:02.575Z,98948.53
2018-12-21T21:05:30.638Z,98957.55
2018-12-21T21:07:58.800Z,98948.06
2018-12-21T21:10:27.022Z,98961.52
2018-12-21T21:12:55.164Z,98940.17
2018-12-21T21:15:23.232Z,98960.99
2018-12-21T21:17:51.328Z,98967.27
2018-12-21T21:20:19.423Z,98961.93
2018-12-21T21:22:47.482Z,98979.28
2018-12-21T21:25:15.600Z,98958.78
2018-12-21T21:27:43.646Z,98980.70
2018-12-21T21:30:15.841Z,98984.48
2018-12-21T21:32:43.898Z,98961.64
2018-12-21T21:35:12.043Z,98983.80
2018-12-21T21:37:40.098Z,98956.01
2018-12-21T21:40:15.033Z,98982.06
2018-12-21T21:42:43.357Z,98979.42
2018-12-21T21:45:11.543Z,98999.05
2018-12-21T21:47:39.652Z,98997.58
2018-12-21T21:50:11.402Z,98999.38
2018-12-21T21:52:39.995Z,98983.34
2018-12-21T21:55:08.281Z,98985.33
2018-12-21T21:57:39.497Z,98984.80
2018-12-21T22:02:48.320Z,98999.73
2018-12-21T22:05:16.521Z,98998.25
2018-12-21T22:07:44.579Z,98998.19
2018-12-21T22:10:13.451Z,98993.55
2018-12-21T22:12:41.739Z,98993.02
2018-12-21T22:15:09.847Z,99006.69
2018-12-21T22:17:37.992Z,99008.45
2018-12-21T22:20:08.468Z,98997.87
2018-12-21T22:22:36.536Z,99002.89
2018-12-21T22:25:04.815Z,99007.95
2018-12-21T22:27:32.874Z,99014.67
2018-12-21T22:30:01.014Z,99025.67
2018-12-21T22:32:29.084Z,99021.79
2018-12-21T22:34:57.160Z,99026.61
2018-12-21T22:37:25.231Z,99011.09
2018-12-21T22:39:53.380Z,99023.77
2018-12-21T22:42:21.493Z,99023.11
2018-12-21T22:44:49.650Z,99034.50
2018-12-21T22:47:17.806Z,99025.59
2018-12-21T22:49:45.907Z,99022.41
2018-12-21T22:52:14.016Z,99021.27
2018-12-21T22:54:42.075Z,99030.61
2018-12-21T22:57:10.150Z,98970.14
2018-12-21T22:59:38.219Z,99037.77
2018-12-21T23:02:06.310Z,99032.33
2018-12-21T23:04:34.421Z,99033.63
2018-12-21T23:07:02.490Z,99045.81
2018-12-21T23:09:30.557Z,99031.97
2018-12-21T23:11:58.628Z,99034.15
2018-12-21T23:14:26.752Z,99033.99
2018-12-21T23:16:54.856Z,99030.48
2018-12-21T23:19:22.995Z,99026.30
2018-12-21T23:21:51.062Z,99018.91
2018-12-21T23:24:19.164Z,99021.98
2018-12-21T23:26:47.231Z,99017.41
2018-12-21T23:29:15.289Z,99000.89
2018-12-21T23:31:43.742Z,99009.84
2018-12-21T23:34:11.868Z,99017.41
2018-12-21T23:36:39.934Z,99013.20
2018-12-21T23:39:07.996Z,99013.69
2018-12-21T23:41:36.064Z,99013.84
2018-12-21T23:44:04.202Z,99011.70
2018-12-21T23:46:32.295Z,99014.74
2018-12-21T23:49:00.431Z,99019.52
2018-12-21T23:51:28.506Z,99013.64
2018-12-21T23:53:56.563Z,99017.30
2018-12-21T23:56:24.634Z,99015.67
2018-12-21T23:58:52.739Z,99013.30
